^^
Dati storici Meteo i Passi-Stazione meteorologica
 
Giornaliero Riepilogo per Dicembre 09, 2022 Unità:  Metrico    English   Both
Giornaliero Settimanale Mensile Annuale
  Corrente: Alta: Bassa: Media:
Temperatura : 14.6 °C 14.7 °C 11.1 °C 12.6 °C
Punto di rugiada : 13.7 °C 13.8 °C 10.3 °C 11.9 °C
Umidità : 95% 96% 95% 96%
Vel. del vento : 1.6km/h 17.7km/h 0km/h 4.2km/h
Raffica di vento : 3.2km/h 19.3km/h - -
Vento SE - - East
Pressione : 998.3 hPa 1006.4 hPa 997.3 hPa -
Precipitazione : 27.2 mm      
 
 
Dati tabulari per Dicembre 09, 2022
Ora Temperatura Punto di rugiada Pressione Vento Velocità del vento Raffica di vento Umidità Tasso di pioggia (Ogni ora)
00:00 11.2 °C 10.6 °C 1006.4 hPa ENE 3.2 km/h 4.8 km/h 96% 3.3 mm
00:05 11.2 °C 10.4 °C 1006.4 hPa NE 3.2 km/h 4.8 km/h 95% 4.3 mm
00:10 11.3 °C 10.6 °C 1006.4 hPa ENE 6.4 km/h 6.4 km/h 96% 6.1 mm
00:15 11.3 °C 10.7 °C 1006.1 hPa NE 8 km/h 12.9 km/h 96% 6.9 mm
00:20 11.3 °C 10.5 °C 1006.1 hPa NE 4.8 km/h 12.9 km/h 95% 7.9 mm
00:25 11.2 °C 10.4 °C 1006.1 hPa NE 4.8 km/h 8 km/h 95% 8.4 mm
00:30 11.3 °C 10.7 °C 1006.1 hPa NE 1.6 km/h 8 km/h 96% 9.1 mm
00:35 11.4 °C 10.7 °C 1006.1 hPa North 3.2 km/h 8 km/h 96% 9.9 mm
00:40 11.3 °C 10.6 °C 1005.8 hPa NNE 12.9 km/h 12.9 km/h 95% 10.9 mm
00:45 11.2 °C 10.4 °C 1006.1 hPa NE 4.8 km/h 14.5 km/h 95% 11.7 mm
00:50 11.2 °C 10.6 °C 1005.8 hPa NE 8 km/h 16.1 km/h 96% 12.4 mm
00:55 11.2 °C 10.6 °C 1005.8 hPa NE 6.4 km/h 9.7 km/h 96% 12.4 mm
01:00 11.2 °C 10.5 °C 1005.8 hPa NE 8 km/h 11.3 km/h 96% 12.7 mm
01:05 11.2 °C 10.5 °C 1005.4 hPa NE 4.8 km/h 14.5 km/h 96% 12.7 mm
01:10 11.2 °C 10.5 °C 1005.4 hPa NE 8 km/h 12.9 km/h 96% 12.2 mm
01:15 11.2 °C 10.6 °C 1005.4 hPa East 1.6 km/h 9.7 km/h 96% 11.9 mm
01:20 11.3 °C 10.6 °C 1005.8 hPa NE 3.2 km/h 6.4 km/h 96% 12.2 mm
01:25 11.3 °C 10.6 °C 1005.8 hPa NNW 3.2 km/h 6.4 km/h 96% 11.9 mm
01:30 11.3 °C 10.6 °C 1005.8 hPa NNW 4.8 km/h 9.7 km/h 96% 11.7 mm
01:35 11.2 °C 10.6 °C 1005.8 hPa NNE 4.8 km/h 8 km/h 96% 11.7 mm
01:40 11.1 °C 10.3 °C 1005.8 hPa NNE 4.8 km/h 11.3 km/h 95% 11.7 mm
01:45 11.2 °C 10.5 °C 1005.8 hPa NE 4.8 km/h 11.3 km/h 96% 10.9 mm
01:50 11.2 °C 10.5 °C 1005.8 hPa NE 8 km/h 11.3 km/h 96% 9.9 mm
01:55 11.1 °C 10.4 °C 1005.4 hPa NE 6.4 km/h 9.7 km/h 96% 9.4 mm
02:00 11.1 °C 10.4 °C 1005.4 hPa NE 3.2 km/h 9.7 km/h 96% 8.9 mm
02:05 11.1 °C 10.4 °C 1005.4 hPa NE 9.7 km/h 9.7 km/h 96% 8.1 mm
02:10 11.1 °C 10.4 °C 1005.8 hPa NE 4.8 km/h 11.3 km/h 96% 7.4 mm
02:15 11.1 °C 10.4 °C 1005.4 hPa NE 9.7 km/h 11.3 km/h 96% 6.9 mm
02:20 11.1 °C 10.4 °C 1005.4 hPa NE 14.5 km/h 16.1 km/h 96% 5.6 mm
02:25 11.2 °C 10.5 °C 1005.4 hPa NE 9.7 km/h 16.1 km/h 96% 5.1 mm
02:30 11.2 °C 10.5 °C 1005.1 hPa ENE 6.4 km/h 16.1 km/h 96% 4.6 mm
02:35 11.3 °C 10.6 °C 1005.1 hPa North 17.7 km/h 19.3 km/h 96% 3.8 mm
02:40 11.3 °C 10.6 °C 1005.1 hPa NE 11.3 km/h 17.7 km/h 96% 2.5 mm
02:45 11.3 °C 10.6 °C 1005.1 hPa NE 4.8 km/h 14.5 km/h 96% 2.3 mm
02:50 11.3 °C 10.7 °C 1005.1 hPa NE 9.7 km/h 14.5 km/h 96% 2.3 mm
02:55 11.3 °C 10.5 °C 1005.1 hPa ENE 4.8 km/h 11.3 km/h 95% 2.3 mm
03:00 11.3 °C 10.5 °C 1004.7 hPa ENE 3.2 km/h 8 km/h 95% 1.8 mm
03:05 11.3 °C 10.5 °C 1004.7 hPa NE 6.4 km/h 8 km/h 95% 1.3 mm
03:10 11.2 °C 10.4 °C 1004.7 hPa Calm   6.4 km/h 95% 0.8 mm
03:15 11.2 °C 10.6 °C 1004.7 hPa Calm   1.6 km/h 96% 0.5 mm
03:20 11.2 °C 10.5 °C 1004.7 hPa North 1.6 km/h 1.6 km/h 96% 0.5 mm
03:25 11.2 °C 10.6 °C 1004.7 hPa ENE 3.2 km/h 4.8 km/h 96% 0.5 mm
03:30 11.2 °C 10.6 °C 1004.4 hPa ENE 3.2 km/h 9.7 km/h 96% 0.5 mm
03:35 11.2 °C 10.5 °C 1004.4 hPa NE 3.2 km/h 8 km/h 96% 0.2 mm
03:40 11.2 °C 10.4 °C 1004.4 hPa NNE 4.8 km/h 8 km/h 95% 0.2 mm
03:45 11.1 °C 10.3 °C 1004.1 hPa NE 6.4 km/h 8 km/h 95% 0.0 mm
03:50 11.1 °C 10.4 °C 1004.1 hPa NE 1.6 km/h 9.7 km/h 96% 0.0 mm
03:55 11.1 °C 10.4 °C 1004.1 hPa NE 3.2 km/h 8 km/h 96% 0.0 mm
04:00 11.1 °C 10.4 °C 1004.1 hPa NE 3.2 km/h 4.8 km/h 96% 0.0 mm
04:05 11.1 °C 10.4 °C 1003.7 hPa NE 3.2 km/h 6.4 km/h 96% 0.2 mm
04:10 11.1 °C 10.4 °C 1003.7 hPa Calm   3.2 km/h 96% 0.2 mm
04:15 11.1 °C 10.4 °C 1003.7 hPa NE 3.2 km/h 3.2 km/h 96% 0.2 mm
04:20 11.1 °C 10.4 °C 1003.7 hPa NE 3.2 km/h 4.8 km/h 96% 0.2 mm
04:25 11.2 °C 10.6 °C 1003.7 hPa ENE 6.4 km/h 8 km/h 96% 0.2 mm
04:30 11.3 °C 10.6 °C 1003.7 hPa NE 3.2 km/h 8 km/h 96% 0.2 mm
04:35 11.3 °C 10.6 °C 1003.4 hPa NNE 4.8 km/h 4.8 km/h 96% 0.2 mm
04:40 11.3 °C 10.6 °C 1003.4 hPa NE 3.2 km/h 8 km/h 96% 0.2 mm
04:45 11.3 °C 10.6 °C 1003.4 hPa ENE 6.4 km/h 9.7 km/h 96% 0.2 mm
04:50 11.3 °C 10.6 °C 1003.0 hPa NE 4.8 km/h 8 km/h 96% 0.2 mm
04:55 11.4 °C 10.7 °C 1003.0 hPa ENE 4.8 km/h 12.9 km/h 96% 0.2 mm
05:00 11.3 °C 10.7 °C 1002.7 hPa NE 6.4 km/h 9.7 km/h 96% 0.2 mm
05:05 11.4 °C 10.7 °C 1002.7 hPa NE 4.8 km/h 8 km/h 96% 0.0 mm
05:10 11.4 °C 10.8 °C 1002.4 hPa NE 6.4 km/h 9.7 km/h 96% 0.2 mm
05:15 11.4 °C 10.8 °C 1002.4 hPa NE 6.4 km/h 12.9 km/h 96% 0.2 mm
05:20 11.4 °C 10.8 °C 1002.4 hPa NE 3.2 km/h 9.7 km/h 96% 0.2 mm
05:25 11.4 °C 10.7 °C 1002.4 hPa Calm   4.8 km/h 96% 0.2 mm
05:30 11.4 °C 10.7 °C 1002.4 hPa NE 3.2 km/h 8 km/h 96% 0.5 mm
05:35 11.4 °C 10.8 °C 1002.4 hPa NE 3.2 km/h 4.8 km/h 96% 0.5 mm
05:40 11.4 °C 10.8 °C 1002.4 hPa ENE 8 km/h 8 km/h 96% 0.5 mm
05:45 11.5 °C 10.8 °C 1002.0 hPa NE 8 km/h 11.3 km/h 96% 0.5 mm
05:50 11.7 °C 11 °C 1002.0 hPa NNE 4.8 km/h 12.9 km/h 96% 0.5 mm
05:55 11.7 °C 11 °C 1002.0 hPa NE 1.6 km/h 6.4 km/h 96% 0.5 mm
06:00 11.7 °C 11 °C 1002.0 hPa NE 3.2 km/h 4.8 km/h 96% 0.5 mm
06:05 11.7 °C 11.1 °C 1002.0 hPa ENE 1.6 km/h 4.8 km/h 96% 0.5 mm
06:10 11.7 °C 11.1 °C 1001.7 hPa Calm   1.6 km/h 96% 0.5 mm
06:15 11.7 °C 11.1 °C 1001.7 hPa Calm     96% 0.5 mm
06:20 11.7 °C 11 °C 1001.7 hPa Calm     96% 0.5 mm
06:25 11.7 °C 11 °C 1001.7 hPa Calm     96% 0.5 mm
06:30 11.7 °C 11 °C 1001.7 hPa NE 1.6 km/h 3.2 km/h 96% 0.2 mm
06:35 11.7 °C 11 °C 1001.7 hPa NE 3.2 km/h 3.2 km/h 96% 0.2 mm
06:40 11.7 °C 11 °C 1001.7 hPa Calm   3.2 km/h 96% 0.5 mm
06:45 11.8 °C 11.1 °C 1001.7 hPa ENE 3.2 km/h 3.2 km/h 96% 0.5 mm
06:50 11.9 °C 11.2 °C 1001.4 hPa East 1.6 km/h 4.8 km/h 96% 0.5 mm
06:55 11.9 °C 11.2 °C 1001.4 hPa ENE 4.8 km/h 4.8 km/h 96% 0.5 mm
07:00 11.9 °C 11.3 °C 1001.4 hPa SE 1.6 km/h 4.8 km/h 96% 0.5 mm
07:05 12 °C 11.3 °C 1001.4 hPa ESE 1.6 km/h 6.4 km/h 96% 0.5 mm
07:10 12.3 °C 11.6 °C 1001.4 hPa ESE 6.4 km/h 6.4 km/h 96% 0.5 mm
07:15 12.4 °C 11.8 °C 1001.4 hPa East 1.6 km/h 6.4 km/h 96% 0.8 mm
07:20 12.6 °C 11.9 °C 1001.4 hPa East 1.6 km/h 4.8 km/h 96% 0.8 mm
07:25 12.7 °C 12.1 °C 1001.4 hPa East 4.8 km/h 6.4 km/h 96% 0.8 mm
07:30 12.9 °C 12.2 °C 1001.0 hPa East 3.2 km/h 6.4 km/h 96% 0.8 mm
07:35 12.9 °C 12.3 °C 1001.0 hPa Calm   6.4 km/h 96% 1.0 mm
07:40 13.1 °C 12.4 °C 1001.4 hPa East 3.2 km/h 6.4 km/h 96% 0.8 mm
07:45 13.2 °C 12.5 °C 1001.0 hPa SE 1.6 km/h 6.4 km/h 96% 0.8 mm
07:50 13.2 °C 12.6 °C 1001.0 hPa SE 1.6 km/h 4.8 km/h 96% 0.8 mm
07:55 13.2 °C 12.5 °C 1001.0 hPa ENE 1.6 km/h 3.2 km/h 96% 0.8 mm
08:00 13.2 °C 12.5 °C 1001.0 hPa SE 3.2 km/h 4.8 km/h 96% 0.8 mm
08:05 13.2 °C 12.6 °C 1001.0 hPa SSE 3.2 km/h 4.8 km/h 96% 0.5 mm
08:10 13.3 °C 12.6 °C 1001.0 hPa East 3.2 km/h 9.7 km/h 96% 0.5 mm
08:15 13.3 °C 12.6 °C 1001.0 hPa NE 3.2 km/h 8 km/h 96% 0.5 mm
08:20 13.3 °C 12.7 °C 1001.0 hPa East 1.6 km/h 8 km/h 96% 0.5 mm
08:25 13.4 °C 12.7 °C 1001.0 hPa ESE 3.2 km/h 6.4 km/h 96% 0.5 mm
08:30 13.4 °C 12.7 °C 1001.0 hPa ESE 3.2 km/h 8 km/h 96% 0.5 mm
08:35 13.4 °C 12.8 °C 1000.7 hPa SE 3.2 km/h 9.7 km/h 96% 0.2 mm
08:40 13.5 °C 12.8 °C 1000.7 hPa ESE 3.2 km/h 11.3 km/h 96% 0.2 mm
08:45 13.5 °C 12.8 °C 1000.7 hPa East 3.2 km/h 8 km/h 96% 0.2 mm
08:50 13.6 °C 12.9 °C 1000.7 hPa ESE 1.6 km/h 8 km/h 96% 0.2 mm
08:55 13.7 °C 13 °C 1000.7 hPa ENE 3.2 km/h 6.4 km/h 96% 0.0 mm
09:00 13.7 °C 13 °C 1000.7 hPa East 1.6 km/h 8 km/h 96% 0.0 mm
09:05 13.7 °C 13.1 °C 1000.3 hPa East 3.2 km/h 11.3 km/h 96% 0.0 mm
09:10 13.8 °C 13.2 °C 1000.3 hPa ESE 4.8 km/h 9.7 km/h 96% 0.0 mm
09:15 13.9 °C 13.2 °C 1000.7 hPa East 8 km/h 14.5 km/h 96% 0.0 mm
09:20 13.9 °C 13.2 °C 1000.7 hPa ESE 3.2 km/h 12.9 km/h 96% 0.0 mm
09:25 13.9 °C 13.1 °C 1001.0 hPa NE 9.7 km/h 11.3 km/h 95% 0.0 mm
09:30 13.9 °C 13.1 °C 1001.0 hPa East 4.8 km/h 11.3 km/h 95% 0.0 mm
09:35 13.9 °C 13.1 °C 1001.0 hPa SSE 4.8 km/h 8 km/h 95% 0.0 mm
09:40 13.9 °C 13.1 °C 1001.0 hPa Calm   9.7 km/h 95% 0.0 mm
09:45 13.9 °C 13.1 °C 1000.7 hPa ESE 3.2 km/h 9.7 km/h 95% 0.0 mm
09:50 13.8 °C 13 °C 1000.7 hPa SE 3.2 km/h 12.9 km/h 95% 0.0 mm
09:55 13.9 °C 13.1 °C 1000.7 hPa SSE 4.8 km/h 9.7 km/h 95% 0.0 mm
10:00 13.9 °C 13.1 °C 1000.7 hPa East 1.6 km/h 9.7 km/h 95% 0.0 mm
10:05 13.9 °C 13.1 °C 1001.0 hPa ESE 3.2 km/h 9.7 km/h 95% 0.0 mm
10:10 13.9 °C 13.1 °C 1000.7 hPa SE 6.4 km/h 9.7 km/h 95% 0.0 mm
10:15 13.9 °C 13.1 °C 1000.7 hPa ESE 3.2 km/h 8 km/h 95% 0.0 mm
10:20 14 °C 13.2 °C 1000.7 hPa ESE 4.8 km/h 12.9 km/h 95% 0.0 mm
10:25 13.9 °C 13.1 °C 1000.7 hPa ENE 9.7 km/h 11.3 km/h 95% 0.0 mm
10:30 13.9 °C 13.1 °C 1000.3 hPa East 3.2 km/h 11.3 km/h 95% 0.0 mm
10:35 13.9 °C 13.1 °C 1000.7 hPa ESE 1.6 km/h 11.3 km/h 95% 0.0 mm
10:40 13.9 °C 13.1 °C 1000.7 hPa SE 4.8 km/h 9.7 km/h 95% 0.0 mm
10:45 14 °C 13.2 °C 1000.7 hPa ESE 6.4 km/h 9.7 km/h 95% 0.0 mm
10:50 13.9 °C 13.1 °C 1000.7 hPa East 3.2 km/h 9.7 km/h 95% 0.0 mm
10:55 14 °C 13.2 °C 1000.3 hPa ESE 4.8 km/h 8 km/h 95% 0.2 mm
11:00 14 °C 13.2 °C 1000.3 hPa East 4.8 km/h 8 km/h 95% 0.2 mm
11:05 14.1 °C 13.2 °C 1000.3 hPa ESE 8 km/h 9.7 km/h 95% 0.2 mm
11:10 14 °C 13.2 °C 1000.3 hPa SE 1.6 km/h 9.7 km/h 95% 0.2 mm
11:15 14.1 °C 13.2 °C 1000.0 hPa SE 1.6 km/h 8 km/h 95% 0.2 mm
11:20 14 °C 13.2 °C 999.7 hPa ESE 4.8 km/h 8 km/h 95% 0.2 mm
11:25 14 °C 13.2 °C 1000.0 hPa SE 3.2 km/h 9.7 km/h 95% 0.2 mm
11:30 14 °C 13.2 °C 999.7 hPa East 6.4 km/h 11.3 km/h 95% 0.5 mm
11:35 13.9 °C 13.1 °C 999.7 hPa SE 3.2 km/h 9.7 km/h 95% 0.5 mm
11:40 13.9 °C 13.1 °C 999.3 hPa SE 3.2 km/h 9.7 km/h 95% 0.5 mm
11:45 13.9 °C 13.1 °C 999.3 hPa ENE 8 km/h 8 km/h 95% 0.5 mm
11:50 14 °C 13.2 °C 999.3 hPa ESE 3.2 km/h 9.7 km/h 95% 0.5 mm
11:55 14.1 °C 13.2 °C 999.3 hPa ENE 8 km/h 11.3 km/h 95% 0.2 mm
12:00 14.1 °C 13.2 °C 999.0 hPa SE 8 km/h 11.3 km/h 95% 0.2 mm
12:05 14.2 °C 13.3 °C 999.0 hPa East 8 km/h 9.7 km/h 95% 0.2 mm
12:10 14.2 °C 13.3 °C 999.0 hPa East 6.4 km/h 9.7 km/h 95% 0.2 mm
12:15 14.2 °C 13.3 °C 999.0 hPa ESE 4.8 km/h 8 km/h 95% 0.2 mm
12:20 14.2 °C 13.4 °C 999.0 hPa Calm   6.4 km/h 95% 0.2 mm
12:25 14.2 °C 13.4 °C 998.6 hPa SE 1.6 km/h 6.4 km/h 95% 0.2 mm
12:30 14.2 °C 13.4 °C 998.6 hPa East 3.2 km/h 6.4 km/h 95% 0.0 mm
12:35 14.3 °C 13.4 °C 998.6 hPa ESE 1.6 km/h 6.4 km/h 95% 0.0 mm
12:40 14.3 °C 13.5 °C 998.6 hPa SE 3.2 km/h 11.3 km/h 95% 0.0 mm
12:45 14.4 °C 13.6 °C 998.6 hPa SE 3.2 km/h 9.7 km/h 95% 0.0 mm
12:50 14.4 °C 13.6 °C 998.6 hPa East 1.6 km/h 6.4 km/h 95% 0.0 mm
12:55 14.4 °C 13.6 °C 998.6 hPa ESE 4.8 km/h 6.4 km/h 95% 0.0 mm
13:00 14.4 °C 13.6 °C 998.3 hPa East 3.2 km/h 6.4 km/h 95% 0.0 mm
13:05 14.4 °C 13.6 °C 998.3 hPa East 1.6 km/h 8 km/h 95% 0.0 mm
13:10 14.4 °C 13.6 °C 998.3 hPa East 3.2 km/h 4.8 km/h 95% 0.0 mm
13:15 14.5 °C 13.7 °C 998.3 hPa ESE 1.6 km/h 6.4 km/h 95% 0.0 mm
13:20 14.5 °C 13.7 °C 998.3 hPa ESE 3.2 km/h 9.7 km/h 95% 0.0 mm
13:25 14.6 °C 13.7 °C 998.0 hPa SE 3.2 km/h 9.7 km/h 95% 0.0 mm
13:30 14.6 °C 13.8 °C 998.0 hPa East 6.4 km/h 11.3 km/h 95% 0.0 mm
13:35 14.7 °C 13.8 °C 997.6 hPa East 6.4 km/h 11.3 km/h 95% 0.0 mm
13:40 14.7 °C 13.8 °C 997.6 hPa ESE 4.8 km/h 9.7 km/h 95% 0.2 mm
13:45 14.6 °C 13.8 °C 997.6 hPa ESE 6.4 km/h 9.7 km/h 95% 0.2 mm
13:50 14.6 °C 13.8 °C 997.3 hPa ESE 6.4 km/h 9.7 km/h 95% 0.2 mm
13:55 14.6 °C 13.8 °C 997.6 hPa SE 3.2 km/h 9.7 km/h 95% 0.2 mm
14:00 14.6 °C 13.8 °C 998.0 hPa SE 1.6 km/h 6.4 km/h 95% 0.5 mm
14:05 14.6 °C 13.8 °C 998.3 hPa SSE 3.2 km/h 4.8 km/h 95% 0.8 mm
14:10 14.6 °C 13.7 °C 998.3 hPa SE 1.6 km/h 3.2 km/h 95% 1.5 mm
meteoipassi.it
Compliments of Weather Underground - 1.5 mb